Time;durP1;ratioP1;P1;durP2;ratioP2;P2;SDS_P1;SDS_P2;PMS_P1;PMS_P2;Temp;Humidity;BMP_temperature;BMP_pressure;BME280_temperature;BME280_humidity;BME280_pressure;Samples;Min_cycle;Max_cycle;Signal;HPM_P1;HPM_P2
2021/05/04 00:08:51;;;;;;;104.40;42.83;;;;;;;2.01;70.28;98657.79;512646;1101;103174;-42
2021/05/04 00:18:56;;;;;;;78.97;34.67;;;;;;;1.92;70.40;98645.80;512552;1101;104867;-40
2021/05/04 00:29:01;;;;;;;64.73;27.00;;;;;;;1.95;70.63;98635.83;512740;1101;103537;-42
2021/05/04 00:39:05;;;;;;;32.67;17.83;;;;;;;1.95;70.71;98632.41;512624;1101;103131;-40
2021/05/04 00:49:09;;;;;;;28.43;15.27;;;;;;;2.00;71.11;98622.27;512619;1101;103226;-40
2021/05/04 00:59:14;;;;;;;46.13;25.13;;;;;;;1.90;71.16;98612.08;512696;1101;103503;-40
2021/05/04 01:09:18;;;;;;;40.77;22.60;;;;;;;1.76;71.22;98608.42;512695;1101;103190;-40
2021/05/04 01:19:24;;;;;;;38.13;19.37;;;;;;;1.76;71.23;98595.39;512618;1101;103166;-41
2021/05/04 01:29:28;;;;;;;35.90;19.80;;;;;;;1.80;71.82;98591.44;512625;1101;103215;-42
2021/05/04 01:39:33;;;;;;;37.57;18.40;;;;;;;1.80;71.83;98578.41;513866;1084;103480;-40
2021/05/04 01:49:38;;;;;;;37.75;19.20;;;;;;;1.69;72.22;98571.02;512650;1101;103170;-40
2021/05/04 01:59:42;;;;;;;45.30;21.55;;;;;;;1.56;72.46;98572.56;512710;1101;103117;-40
2021/05/04 02:09:47;;;;;;;40.83;21.73;;;;;;;1.60;73.05;98568.62;512487;1096;103532;-40
2021/05/04 02:19:51;;;;;;;43.85;21.80;;;;;;;1.61;72.71;98567.63;512631;1101;103189;-40
2021/05/04 02:29:55;;;;;;;40.13;21.27;;;;;;;1.59;72.68;98553.97;512459;1095;104614;-40
2021/05/04 02:39:59;;;;;;;38.17;21.40;;;;;;;1.56;73.00;98544.70;512491;1095;103170;-40
2021/05/04 02:50:03;;;;;;;48.43;25.97;;;;;;;1.41;73.21;98529.00;512516;1101;103283;-39
2021/05/04 03:00:10;;;;;;;53.10;28.93;;;;;;;1.35;73.12;98514.08;512827;1096;103240;-40
2021/05/04 03:10:14;;;;;;;58.60;30.07;;;;;;;1.34;73.59;98509.84;512753;1101;103175;-40
2021/05/04 03:20:18;;;;;;;59.87;26.93;;;;;;;1.40;73.26;98500.52;512376;1101;103245;-40
2021/05/04 03:30:22;;;;;;;49.17;26.53;;;;;;;1.40;73.53;98488.30;512642;1101;103195;-41
2021/05/04 03:40:26;;;;;;;66.77;33.47;;;;;;;1.45;73.53;98485.20;512753;1096;103569;-40
2021/05/04 03:50:32;;;;;;;81.60;38.70;;;;;;;1.78;73.86;98480.51;512654;1101;103173;-41
2021/05/04 04:00:36;;;;;;;76.43;39.30;;;;;;;3.03;73.38;98476.10;512655;1101;104518;-40
2021/05/04 04:10:41;;;;;;;92.23;42.27;;;;;;;4.01;72.51;98468.30;512785;1101;103234;-40
2021/05/04 04:20:46;;;;;;;80.67;39.90;;;;;;;4.84;71.46;98463.88;512669;1101;103739;-40
2021/05/04 04:30:50;;;;;;;74.73;41.33;;;;;;;5.64;70.70;98464.00;512773;1096;103798;-41
2021/05/04 04:40:54;;;;;;;75.43;40.93;;;;;;;6.52;69.88;98454.80;512811;1101;103546;-39
2021/05/04 04:50:58;;;;;;;65.30;34.20;;;;;;;7.23;69.02;98452.02;512788;1101;103158;-42
2021/05/04 05:01:03;;;;;;;67.67;36.40;;;;;;;7.78;68.04;98441.67;512661;1101;103286;-41
2021/05/04 05:11:07;;;;;;;56.15;30.20;;;;;;;8.55;66.25;98435.06;512618;1101;103439;-40
2021/05/04 05:21:14;;;;;;;51.77;28.27;;;;;;;8.99;64.82;98417.26;512902;1101;103182;-41
2021/05/04 05:31:20;;;;;;;46.07;25.90;;;;;;;9.46;62.47;98417.34;512717;1100;103241;-41
2021/05/04 05:41:24;;;;;;;34.87;20.97;;;;;;;9.92;62.06;98392.00;512640;1101;104508;-39
2021/05/04 05:51:29;;;;;;;33.27;17.90;;;;;;;10.64;60.38;98381.88;512645;1101;104880;-41
2021/05/04 06:01:33;;;;;;;21.85;13.70;;;;;;;11.51;59.20;98352.40;512691;1101;103165;-42
2021/05/04 06:11:37;;;;;;;18.43;9.53;;;;;;;11.34;54.58;98329.38;512709;1101;103175;-41
2021/05/04 06:21:41;;;;;;;16.37;8.90;;;;;;;11.99;55.78;98317.33;512886;1096;103193;-41
2021/05/04 06:42:07;;;;;;;17.10;10.00;;;;;;;12.87;53.71;98272.91;512551;1101;104508;-41
2021/05/04 06:52:11;;;;;;;17.70;9.90;;;;;;;13.32;51.57;98253.91;512636;1101;103234;-41
2021/05/04 07:02:15;;;;;;;16.55;8.95;;;;;;;13.49;52.31;98248.43;512829;1101;103104;-41
2021/05/04 07:12:20;;;;;;;14.10;8.20;;;;;;;13.52;52.58;98229.32;512732;1101;103173;-41
2021/05/04 07:22:26;;;;;;;15.07;9.23;;;;;;;13.95;50.50;98214.86;512478;1096;103189;-41
2021/05/04 07:32:30;;;;;;;16.30;9.40;;;;;;;14.01;50.69;98197.88;512746;1101;103544;-41
2021/05/04 07:42:35;;;;;;;9.25;7.70;;;;;;;14.18;50.50;98183.55;512697;1101;103165;-42
2021/05/04 07:52:43;;;;;;;9.93;7.50;;;;;;;13.82;50.44;98172.84;512794;1101;103170;-40
2021/05/04 08:02:48;;;;;;;9.20;7.30;;;;;;;14.05;49.71;98164.39;512647;1101;103170;-40
2021/05/04 08:12:52;;;;;;;7.87;6.40;;;;;;;14.67;50.55;98144.78;512610;1101;103100;-43
2021/05/04 08:22:56;;;;;;;9.45;5.20;;;;;;;14.98;50.27;98126.89;512729;1096;103232;-42
2021/05/04 08:33:02;;;;;;;6.53;5.63;;;;;;;14.83;50.61;98116.27;512641;1096;103531;-42
2021/05/04 08:43:06;;;;;;;8.90;5.13;;;;;;;15.35;50.31;98099.85;512694;1096;103103;-41
2021/05/04 08:53:11;;;;;;;8.33;5.30;;;;;;;14.85;48.73;98089.38;512531;1096;103194;-42
2021/05/04 09:03:18;;;;;;;6.83;4.83;;;;;;;14.43;48.91;98077.20;512711;1096;103197;-41
2021/05/04 09:13:27;;;;;;;6.80;5.43;;;;;;;14.38;47.32;98067.34;512580;1101;103554;-41
2021/05/04 09:23:46;;;;;;;6.90;4.83;;;;;;;14.27;48.11;98054.33;512733;1101;103191;-42
2021/05/04 09:33:51;;;;;;;6.17;4.57;;;;;;;14.30;48.35;98049.27;512650;1097;103190;-42
2021/05/04 09:43:55;;;;;;;7.80;4.50;;;;;;;14.43;46.44;98030.16;512611;1096;103184;-41
2021/05/04 09:54:10;;;;;;;11.03;5.40;;;;;;;14.58;47.20;98010.68;512791;1101;103213;-43
2021/05/04 10:04:16;;;;;;;7.30;4.30;;;;;;;14.90;46.32;98004.18;512584;1101;103442;-42
2021/05/04 10:14:20;;;;;;;4.13;3.73;;;;;;;14.98;47.13;97979.67;512565;1101;103100;-41
2021/05/04 10:24:27;;;;;;;6.67;4.57;;;;;;;14.86;46.83;97952.56;512648;1101;103561;-42
2021/05/04 10:34:32;;;;;;;8.07;4.50;;;;;;;14.77;46.46;97948.89;512443;1101;103488;-42
2021/05/04 10:45:13;;;;;;;8.67;4.80;;;;;;;14.66;47.02;97938.27;512551;1094;103464;-41
2021/05/04 10:55:18;;;;;;;5.57;4.10;;;;;;;14.66;47.43;97910.87;512738;1096;103454;-41
2021/05/04 11:05:47;;;;;;;6.80;3.60;;;;;;;14.90;47.27;97887.85;512691;1101;103237;-40
2021/05/04 11:15:57;;;;;;;7.00;3.73;;;;;;;15.14;47.46;97869.36;512850;1101;103169;-42
2021/05/04 11:26:01;;;;;;;6.73;4.37;;;;;;;15.44;47.16;97855.00;512573;1096;104559;-41
2021/05/04 11:36:06;;;;;;;5.37;3.73;;;;;;;15.61;45.79;97825.28;512598;1096;103213;-41
2021/05/04 11:46:10;;;;;;;4.20;2.97;;;;;;;16.00;44.81;97817.14;512771;1101;103670;-41
2021/05/04 11:56:14;;;;;;;2.43;2.23;;;;;;;16.50;43.94;97790.91;512708;1101;103170;-42
2021/05/04 12:06:18;;;;;;;3.80;3.00;;;;;;;16.65;41.67;97764.02;512700;1096;103170;-42
2021/05/04 12:16:28;;;;;;;3.27;2.90;;;;;;;16.82;42.37;97753.64;512549;1101;103213;-43
2021/05/04 12:26:33;;;;;;;4.97;2.20;;;;;;;17.09;42.64;97731.56;512607;1101;103170;-42
2021/05/04 12:36:42;;;;;;;3.97;2.60;;;;;;;17.28;40.97;97712.02;512698;1101;103337;-42
2021/05/04 12:46:48;;;;;;;6.10;3.27;;;;;;;17.22;39.66;97675.77;512621;1101;103234;-42
2021/05/04 12:56:55;;;;;;;3.57;2.57;;;;;;;17.21;38.52;97680.33;512520;1101;103173;-42
2021/05/04 13:48:34;;;;;;;4.77;3.87;;;;;;;17.52;38.15;97596.91;512440;1101;103541;-42
2021/05/04 13:58:53;;;;;;;8.03;4.20;;;;;;;17.43;37.70;97594.13;512485;1096;103535;-42
2021/05/04 14:09:23;;;;;;;3.87;3.47;;;;;;;17.51;38.77;97577.41;512588;1101;103169;-41
2021/05/04 14:29:49;;;;;;;4.73;3.87;;;;;;;17.47;39.17;97544.33;512537;1101;103476;-42
2021/05/04 14:40:02;;;;;;;5.15;3.60;;;;;;;17.36;39.64;97522.40;512861;1101;103571;-42
2021/05/04 15:10:54;;;;;;;4.47;3.63;;;;;;;17.88;37.20;97495.33;512424;1101;103317;-40
2021/05/04 15:41:38;;;;;;;9.40;3.30;;;;;;;17.43;37.88;97447.16;512439;1096;103220;-43
2021/05/04 16:12:30;;;;;;;7.93;4.37;;;;;;;17.22;39.38;97438.02;512476;1101;103218;-41
2021/05/04 16:22:37;;;;;;;6.27;4.40;;;;;;;16.87;39.46;97435.04;512554;1096;103544;-41
2021/05/04 16:32:42;;;;;;;7.53;3.67;;;;;;;16.63;39.57;97442.45;512853;1096;103208;-41
2021/05/04 16:42:46;;;;;;;8.67;5.00;;;;;;;16.43;39.88;97440.96;512682;1095;103190;-42
2021/05/04 16:52:51;;;;;;;10.65;6.00;;;;;;;16.27;40.80;97419.11;512688;1101;104402;-42
2021/05/04 17:02:56;;;;;;;6.20;4.20;;;;;;;16.13;41.02;97405.78;512668;1101;103538;-41
2021/05/04 17:13:01;;;;;;;9.43;4.70;;;;;;;16.01;41.77;97394.79;512715;1101;103202;-41
2021/05/04 17:23:05;;;;;;;10.40;5.77;;;;;;;15.91;42.59;97386.98;512463;1100;103474;-41
2021/05/04 17:33:09;;;;;;;15.35;6.75;;;;;;;15.76;43.16;97376.58;512517;1097;103181;-41
2021/05/04 17:43:14;;;;;;;11.37;6.37;;;;;;;15.69;42.55;97389.51;512597;1096;103351;-41
2021/05/04 17:53:18;;;;;;;14.10;7.40;;;;;;;15.61;43.35;97385.62;512686;1101;103218;-41
2021/05/04 18:03:22;;;;;;;12.20;6.47;;;;;;;15.47;43.39;97377.57;512678;1101;103458;-42
2021/05/04 18:23:46;;;;;;;12.70;7.43;;;;;;;15.33;42.80;97369.52;512703;1101;103208;-42
2021/05/04 18:33:55;;;;;;;10.30;5.27;;;;;;;15.26;43.25;97377.10;512710;1100;103205;-41
2021/05/04 20:17:24;;;;;;;17.90;8.97;;;;;;;14.20;44.79;97333.31;512336;1101;103170;-42
2021/05/04 20:27:28;;;;;;;13.23;7.93;;;;;;;14.14;44.98;97333.34;512598;1101;103544;-40
2021/05/04 20:37:32;;;;;;;11.57;6.27;;;;;;;14.10;44.79;97332.34;512536;1101;103113;-40
2021/05/04 20:57:56;;;;;;;5.80;3.90;;;;;;;14.12;45.04;97362.08;512687;1096;103189;-42
2021/05/04 21:08:00;;;;;;;5.77;4.13;;;;;;;14.16;45.21;97377.46;512761;1101;103187;-42
2021/05/04 21:18:07;;;;;;;7.43;3.30;;;;;;;14.09;45.69;97377.81;512633;1101;103157;-42
2021/05/04 21:28:12;;;;;;;5.20;3.73;;;;;;;14.01;45.94;97373.91;512599;1101;103170;-41
2021/05/04 21:38:16;;;;;;;5.33;3.50;;;;;;;13.96;46.48;97384.60;512604;1096;103175;-41
2021/05/04 21:48:21;;;;;;;6.87;4.23;;;;;;;13.87;46.83;97375.64;512708;1101;103173;-40
2021/05/04 21:58:25;;;;;;;6.33;3.97;;;;;;;13.71;47.48;97363.56;512555;1101;103170;-42
2021/05/04 22:08:30;;;;;;;10.00;3.93;;;;;;;13.54;48.18;97368.53;512690;1097;103193;-43
2021/05/04 22:39:20;;;;;;;5.50;3.73;;;;;;;13.18;49.73;97392.69;512920;1101;103548;-40
2021/05/04 23:20:36;;;;;;;5.80;3.83;;;;;;;12.86;51.10;97322.30;512718;1101;103181;-41
2021/05/04 23:30:40;;;;;;;5.63;4.33;;;;;;;12.77;51.66;97328.44;512519;1096;103628;-41
2021/05/04 23:40:45;;;;;;;9.77;5.17;;;;;;;12.68;51.95;97330.89;512563;1101;103541;-41
2021/05/04 23:50:49;;;;;;;11.23;5.13;;;;;;;12.56;52.20;97323.28;512687;1101;103115;-41
